createdAt,value
2018-03-06T00:00:15.826Z,980.17
2018-03-06T00:01:28.871Z,980.16
2018-03-06T00:02:41.112Z,980.12
2018-03-06T00:03:51.296Z,980.14
2018-03-06T00:05:01.211Z,980.13
2018-03-06T00:06:11.361Z,980.13
2018-03-06T00:07:21.326Z,980.1
2018-03-06T00:08:31.507Z,980.09
2018-03-06T00:09:42.330Z,980.06
2018-03-06T00:10:56.611Z,980.04
2018-03-06T00:12:09.663Z,980.04
2018-03-06T00:13:19.832Z,980.04
2018-03-06T00:14:29.414Z,980.04
2018-03-06T00:15:39.553Z,980.06
2018-03-06T00:16:49.516Z,980.04
2018-03-06T00:17:59.828Z,980.03
2018-03-06T00:19:09.719Z,980.02
2018-03-06T00:20:21.896Z,980.04
2018-03-06T00:21:35.213Z,980.01
2018-03-06T00:22:45.441Z,979.99
2018-03-06T00:23:55.689Z,980.01
2018-03-06T00:25:05.810Z,979.96
2018-03-06T00:26:15.948Z,980.02
2018-03-06T00:27:28.642Z,979.95
2018-03-06T00:28:41.721Z,979.96
2018-03-06T00:29:51.896Z,979.95
2018-03-06T00:31:01.777Z,979.94
2018-03-06T00:32:11.955Z,979.88
2018-03-06T00:33:21.804Z,979.89
2018-03-06T00:34:31.953Z,979.9
2018-03-06T00:35:42.542Z,979.92
2018-03-06T00:36:55.421Z,979.86
2018-03-06T00:38:09.593Z,979.89
2018-03-06T00:39:21.095Z,979.84
2018-03-06T00:40:31.283Z,979.86
2018-03-06T00:41:41.417Z,979.86
2018-03-06T00:42:51.327Z,979.9
2018-03-06T00:44:02.865Z,979.92
2018-03-06T00:45:16.978Z,979.86
2018-03-06T00:46:26.543Z,979.86
2018-03-06T00:47:36.712Z,979.81
2018-03-06T00:48:46.585Z,979.86
2018-03-06T00:49:56.199Z,979.82
2018-03-06T00:51:09.851Z,979.81
2018-03-06T00:52:23.231Z,979.82
2018-03-06T00:53:33.099Z,979.84
2018-03-06T00:54:43.253Z,979.8
2018-03-06T00:55:53.405Z,979.76
2018-03-06T00:57:03.555Z,979.76
2018-03-06T00:58:16.552Z,979.77
2018-03-06T00:59:30.766Z,979.75
2018-03-06T01:00:41.598Z,979.79
2018-03-06T01:01:51.470Z,979.77
2018-03-06T01:03:01.661Z,979.79
2018-03-06T01:04:11.805Z,979.78
2018-03-06T01:05:22.462Z,979.76
2018-03-06T01:06:36.305Z,979.7
2018-03-06T01:07:50.123Z,979.69
2018-03-06T01:09:00.010Z,979.7
2018-03-06T01:10:10.157Z,979.72
2018-03-06T01:11:20.344Z,979.65
2018-03-06T01:12:30.260Z,979.65
2018-03-06T01:13:40.429Z,979.68
2018-03-06T01:14:53.846Z,979.61
2018-03-06T01:16:06.832Z,979.63
2018-03-06T01:17:17.038Z,979.57
2018-03-06T01:18:27.187Z,979.55
2018-03-06T01:19:37.376Z,979.59
2018-03-06T01:20:47.536Z,979.57
2018-03-06T01:21:57.149Z,979.56
2018-03-06T01:23:09.371Z,979.54
2018-03-06T01:24:22.264Z,979.52
2018-03-06T01:25:34.812Z,979.48
2018-03-06T01:26:45.152Z,979.47
2018-03-06T01:27:54.743Z,979.46
2018-03-06T01:29:04.864Z,979.46
2018-03-06T01:30:15.673Z,979.43
2018-03-06T01:31:29.991Z,979.41
2018-03-06T01:32:40.993Z,979.4
2018-03-06T01:33:51.117Z,979.4
2018-03-06T01:35:01.286Z,979.41
2018-03-06T01:36:11.431Z,979.42
2018-03-06T01:37:24.881Z,979.42
2018-03-06T01:38:38.044Z,979.43
2018-03-06T01:39:48.221Z,979.41
2018-03-06T01:40:58.376Z,979.44
2018-03-06T01:42:08.525Z,979.42
2018-03-06T01:43:18.714Z,979.38
2018-03-06T01:44:32.634Z,979.39
2018-03-06T01:45:45.141Z,979.39
2018-03-06T01:46:55.290Z,979.31
2018-03-06T01:48:05.441Z,979.32
2018-03-06T01:49:15.631Z,979.33
2018-03-06T01:50:26.856Z,979.29
2018-03-06T01:51:41.054Z,979.34
2018-03-06T01:52:52.641Z,979.31
2018-03-06T01:54:02.497Z,979.28
2018-03-06T01:55:12.706Z,979.25
2018-03-06T01:56:22.616Z,979.26
2018-03-06T01:57:33.506Z,979.26
2018-03-06T01:58:47.316Z,979.27
2018-03-06T01:59:59.867Z,979.25
2018-03-06T02:01:09.868Z,979.24
2018-03-06T02:02:19.735Z,979.26
2018-03-06T02:03:29.915Z,979.24
2018-03-06T02:04:40.062Z,979.25
2018-03-06T02:05:53.381Z,979.25
2018-03-06T02:07:06.506Z,979.26
2018-03-06T02:08:16.883Z,979.21
2018-03-06T02:09:26.787Z,979.22
2018-03-06T02:10:37.082Z,979.19
2018-03-06T02:11:46.976Z,979.1
2018-03-06T02:12:58.141Z,979.1
2018-03-06T02:14:10.403Z,979.07
2018-03-06T02:15:22.701Z,979.09
2018-03-06T02:16:32.601Z,979.06
2018-03-06T02:17:42.439Z,979
2018-03-06T02:18:52.585Z,979.01
2018-03-06T02:20:02.772Z,978.96
2018-03-06T02:21:12.994Z,978.94
2018-03-06T02:22:24.068Z,978.9
2018-03-06T02:23:38.222Z,978.85
2018-03-06T02:24:50.620Z,978.84
2018-03-06T02:26:00.808Z,978.86
2018-03-06T02:27:10.979Z,978.87
2018-03-06T02:28:21.172Z,978.86
2018-03-06T02:29:31.333Z,978.85
2018-03-06T02:30:42.313Z,978.84
2018-03-06T02:31:54.958Z,978.86
2018-03-06T02:33:04.818Z,978.8
2018-03-06T02:34:14.693Z,978.78
2018-03-06T02:35:24.286Z,978.74
2018-03-06T02:36:34.462Z,978.79
2018-03-06T02:37:44.339Z,978.76
2018-03-06T02:38:55.574Z,978.7
2018-03-06T02:40:08.461Z,978.69
2018-03-06T02:41:20.278Z,978.67
2018-03-06T02:42:30.184Z,978.69
2018-03-06T02:43:40.395Z,978.7
2018-03-06T02:44:50.291Z,978.66
2018-03-06T02:46:01.148Z,978.64
2018-03-06T02:47:14.580Z,978.68
2018-03-06T02:48:26.571Z,978.57
2018-03-06T02:49:36.777Z,978.61
2018-03-06T02:50:46.923Z,978.58
2018-03-06T02:51:56.761Z,978.56
2018-03-06T02:53:06.598Z,978.56
2018-03-06T02:54:17.463Z,978.55
2018-03-06T02:55:31.472Z,978.54
2018-03-06T02:56:42.987Z,978.55
2018-03-06T02:57:53.115Z,978.48
2018-03-06T02:59:03.285Z,978.48
2018-03-06T03:00:13.169Z,978.45
2018-03-06T03:01:22.555Z,978.47
2018-03-06T03:02:34.733Z,978.39
2018-03-06T03:03:48.788Z,978.37
2018-03-06T03:05:00.871Z,978.4
2018-03-06T03:06:11.006Z,978.37
2018-03-06T03:07:21.211Z,978.38
2018-03-06T03:08:31.392Z,978.3
2018-03-06T03:39:40.653Z,977.86
2018-03-06T03:40:50.761Z,977.8
2018-03-06T03:42:03.472Z,977.82
2018-03-06T03:43:17.600Z,977.78
2018-03-06T03:44:27.464Z,977.79
2018-03-06T03:45:37.648Z,977.74
2018-03-06T03:46:47.903Z,977.74
2018-03-06T03:47:58.792Z,977.77
2018-03-06T03:49:12.969Z,977.78
2018-03-06T03:50:23.828Z,977.76
2018-03-06T03:51:33.961Z,977.75
2018-03-06T03:52:44.058Z,977.73
2018-03-06T03:53:53.644Z,977.69
2018-03-06T03:55:06.637Z,977.69
2018-03-06T03:56:20.556Z,977.66
2018-03-06T03:57:31.354Z,977.69
2018-03-06T03:58:41.537Z,977.67
2018-03-06T03:59:51.378Z,977.67
2018-03-06T04:01:01.235Z,977.62
2018-03-06T04:02:11.962Z,977.6
2018-03-06T04:03:25.880Z,977.61
2018-03-06T04:04:37.429Z,977.55
2018-03-06T04:05:47.559Z,977.62
2018-03-06T04:06:58.234Z,977.55
2018-03-06T04:08:11.777Z,977.57
2018-03-06T04:09:21.922Z,977.54
2018-03-06T04:10:32.720Z,977.56
2018-03-06T04:11:42.837Z,977.52
2018-03-06T04:12:52.703Z,977.49
2018-03-06T04:14:05.572Z,977.49
2018-03-06T04:15:17.377Z,977.49
2018-03-06T04:16:28.368Z,977.47
2018-03-06T04:17:38.507Z,977.48
2018-03-06T04:18:48.755Z,977.43
2018-03-06T04:19:58.348Z,977.43
2018-03-06T04:21:12.903Z,977.47
2018-03-06T04:22:25.557Z,977.48
2018-03-06T04:23:35.670Z,977.47
2018-03-06T04:24:45.862Z,977.45
2018-03-06T04:25:55.977Z,977.45
2018-03-06T04:27:05.849Z,977.45
2018-03-06T04:28:19.312Z,977.44
2018-03-06T04:29:32.413Z,977.38
2018-03-06T04:30:43.213Z,977.43
2018-03-06T04:31:53.370Z,977.41
2018-03-06T04:33:03.214Z,977.4
2018-03-06T04:34:13.072Z,977.45
2018-03-06T04:35:24.968Z,977.4
2018-03-06T04:36:38.505Z,977.4
2018-03-06T04:37:48.674Z,977.37
2018-03-06T04:38:58.573Z,977.4
2018-03-06T04:40:08.716Z,977.38
2018-03-06T04:41:18.862Z,977.35
2018-03-06T04:42:31.697Z,977.36
2018-03-06T04:43:45.819Z,977.36
2018-03-06T04:44:56.245Z,977.37
2018-03-06T04:46:06.412Z,977.34
2018-03-06T04:47:16.724Z,977.36
2018-03-06T04:48:26.322Z,977.37
2018-03-06T04:49:37.301Z,977.37
2018-03-06T04:50:51.440Z,977.32
2018-03-06T04:52:03.792Z,977.28
2018-03-06T04:53:13.938Z,977.23
2018-03-06T04:54:24.105Z,977.23
2018-03-06T04:55:33.968Z,977.15
2018-03-06T04:56:44.085Z,977.14
2018-03-06T04:57:54.230Z,977.11
2018-03-06T04:59:07.227Z,977.11
2018-03-06T05:00:21.279Z,977.11
2018-03-06T05:01:31.159Z,977.08
2018-03-06T05:02:41.661Z,977.08
2018-03-06T05:03:51.879Z,977.09
2018-03-06T05:05:01.756Z,977.08
2018-03-06T05:06:11.620Z,977.04
2018-03-06T05:07:23.556Z,977.05
2018-03-06T05:08:37.332Z,977.07
2018-03-06T05:09:47.903Z,977
2018-03-06T05:10:58.082Z,976.96
2018-03-06T05:12:08.066Z,976.96
2018-03-06T05:13:18.293Z,976.89
2018-03-06T05:14:30.891Z,976.89
2018-03-06T05:15:41.030Z,976.87
2018-03-06T05:16:50.330Z,976.87
2018-03-06T05:18:00.226Z,976.84
2018-03-06T05:19:10.115Z,976.86
2018-03-06T05:20:21.489Z,976.88
2018-03-06T05:21:35.581Z,976.87
2018-03-06T05:22:47.367Z,976.85
2018-03-06T05:23:57.529Z,976.85
2018-03-06T05:25:07.692Z,976.86
2018-03-06T05:26:17.834Z,976.79
2018-03-06T05:27:27.980Z,976.83
2018-03-06T05:28:37.861Z,976.85
2018-03-06T05:29:49.109Z,976.77
2018-03-06T05:31:02.147Z,976.79
2018-03-06T05:32:16.008Z,976.82
2018-03-06T05:33:27.409Z,976.77
2018-03-06T05:34:36.996Z,976.82
2018-03-06T05:35:47.195Z,976.85
2018-03-06T05:36:57.066Z,976.88
2018-03-06T05:38:07.252Z,976.88
2018-03-06T05:39:18.958Z,976.88
2018-03-06T05:40:31.965Z,976.92
2018-03-06T05:41:43.912Z,976.9
2018-03-06T05:42:55.003Z,976.94
2018-03-06T05:44:05.152Z,976.9
2018-03-06T05:45:15.296Z,976.93
2018-03-06T05:46:25.151Z,976.89
2018-03-06T05:47:35.306Z,976.91
2018-03-06T05:48:45.203Z,976.9
2018-03-06T05:49:58.390Z,976.91
2018-03-06T05:51:11.501Z,976.88
2018-03-06T05:52:21.068Z,976.93
2018-03-06T05:53:31.264Z,976.91
2018-03-06T05:54:41.415Z,976.93
2018-03-06T05:55:51.570Z,976.87
2018-03-06T05:57:01.731Z,976.91
2018-03-06T05:58:13.451Z,976.92
2018-03-06T05:59:27.513Z,976.89
2018-03-06T06:00:39.966Z,976.9
2018-03-06T06:01:49.839Z,976.95
2018-03-06T06:03:00.018Z,976.95
2018-03-06T06:04:10.188Z,976.96
2018-03-06T06:05:19.791Z,976.98
2018-03-06T06:06:33.436Z,976.99
2018-03-06T06:07:46.466Z,976.96
2018-03-06T06:08:56.161Z,976.98
2018-03-06T06:10:06.405Z,976.97
2018-03-06T06:11:19.544Z,976.97
2018-03-06T06:12:32.021Z,977.01
2018-03-06T06:13:42.199Z,977
2018-03-06T06:14:52.271Z,976.97
2018-03-06T06:16:02.085Z,976.96
2018-03-06T06:17:12.148Z,976.99
2018-03-06T06:18:21.677Z,976.99
2018-03-06T06:19:31.474Z,976.98
2018-03-06T06:20:41.276Z,976.95
2018-03-06T06:21:51.392Z,977
2018-03-06T06:23:01.214Z,977
2018-03-06T06:24:11.017Z,977
2018-03-06T06:25:21.113Z,976.97
2018-03-06T06:26:30.920Z,976.97
2018-03-06T06:27:41.045Z,976.93
2018-03-06T06:28:51.119Z,976.97
2018-03-06T06:30:01.186Z,976.96
2018-03-06T06:31:11.261Z,976.98
2018-03-06T06:32:21.329Z,976.97
2018-03-06T06:33:31.651Z,977
2018-03-06T06:34:41.441Z,976.96
2018-03-06T06:35:51.494Z,976.95
2018-03-06T06:37:01.040Z,976.97
2018-03-06T06:38:11.102Z,977
2018-03-06T06:39:20.899Z,977
2018-03-06T06:40:30.689Z,976.99
2018-03-06T06:41:40.754Z,977.02
2018-03-06T06:42:50.823Z,976.98
2018-03-06T06:44:00.356Z,977.01
2018-03-06T06:45:10.412Z,977.01
2018-03-06T06:46:20.458Z,977.01
2018-03-06T06:47:30.578Z,977.01
2018-03-06T06:48:40.653Z,977.02
2018-03-06T06:49:50.716Z,976.97
2018-03-06T06:51:00.779Z,976.97
2018-03-06T06:52:10.829Z,976.98
2018-03-06T06:53:20.892Z,976.98
2018-03-06T06:54:30.946Z,976.98
2018-03-06T06:55:40.740Z,976.96
2018-03-06T06:56:50.335Z,976.92
2018-03-06T06:58:00.402Z,976.93
2018-03-06T06:59:10.245Z,976.97
2018-03-06T07:00:20.306Z,976.94
2018-03-06T07:01:30.377Z,976.9
2018-03-06T07:02:39.911Z,976.89
2018-03-06T07:03:49.968Z,976.88
2018-03-06T07:05:00.076Z,976.88
2018-03-06T07:06:10.123Z,976.91
2018-03-06T07:07:20.185Z,976.88
2018-03-06T07:08:29.989Z,976.88
2018-03-06T07:09:39.536Z,976.87
2018-03-06T07:10:49.592Z,976.9
2018-03-06T07:11:59.670Z,976.89
2018-03-06T07:13:09.465Z,976.88
2018-03-06T07:14:19.862Z,976.87
2018-03-06T07:15:29.917Z,976.86
2018-03-06T07:16:39.985Z,976.88
2018-03-06T07:17:49.768Z,976.88
2018-03-06T07:18:59.819Z,976.83
2018-03-06T07:20:09.362Z,976.84
2018-03-06T07:21:19.153Z,976.79
2018-03-06T07:22:29.245Z,976.79
2018-03-06T07:23:39.300Z,976.73
2018-03-06T07:24:49.208Z,976.77
2018-03-06T07:25:59.288Z,976.75
2018-03-06T07:27:09.410Z,976.75
2018-03-06T07:28:19.468Z,976.72
2018-03-06T07:29:29.255Z,976.69
2018-03-06T07:30:39.085Z,976.71
2018-03-06T07:31:49.216Z,976.68
2018-03-06T07:32:58.186Z,976.64
2018-03-06T07:34:08.302Z,976.66
2018-03-06T07:35:17.841Z,976.66
2018-03-06T07:36:27.924Z,976.67
2018-03-06T07:37:37.991Z,976.66
2018-03-06T07:38:47.783Z,976.62
2018-03-06T07:39:57.630Z,976.64
2018-03-06T07:41:07.680Z,976.69
2018-03-06T07:42:17.763Z,976.72
2018-03-06T07:43:27.820Z,976.69
2018-03-06T07:44:37.621Z,976.67
2018-03-06T07:45:47.210Z,976.68
2018-03-06T07:46:56.991Z,976.69
2018-03-06T07:48:06.537Z,976.68
2018-03-06T07:49:16.607Z,976.66
2018-03-06T07:50:26.411Z,976.64
2018-03-06T07:51:36.523Z,976.63
2018-03-06T07:52:46.323Z,976.65
2018-03-06T07:53:56.110Z,976.62
2018-03-06T07:55:05.957Z,976.66
2018-03-06T07:56:15.774Z,976.63
2018-03-06T07:57:25.827Z,976.65
2018-03-06T07:58:35.627Z,976.62
2018-03-06T07:59:45.410Z,976.6
2018-03-06T08:00:55.472Z,976.63
2018-03-06T08:02:05.532Z,976.61
2018-03-06T08:03:15.408Z,976.6
2018-03-06T08:04:25.268Z,976.57
2018-03-06T08:05:35.065Z,976.55
2018-03-06T08:06:44.597Z,976.54
2018-03-06T08:07:54.682Z,976.52
2018-03-06T08:09:04.470Z,976.55
2018-03-06T08:10:14.559Z,976.55
2018-03-06T08:11:24.357Z,976.53
2018-03-06T08:12:34.417Z,976.53
2018-03-06T08:13:44.467Z,976.58
2018-03-06T08:14:54.264Z,976.52
2018-03-06T08:16:04.349Z,976.55
2018-03-06T08:17:14.405Z,976.55
2018-03-06T08:18:24.205Z,976.54
2018-03-06T08:19:33.986Z,976.54
2018-03-06T08:20:44.044Z,976.49
2018-03-06T08:21:53.843Z,976.49
2018-03-06T08:23:03.912Z,976.46
2018-03-06T08:24:13.781Z,976.51
2018-03-06T08:25:23.826Z,976.46
2018-03-06T08:26:33.930Z,976.46
2018-03-06T08:27:43.988Z,976.45
2018-03-06T08:28:53.800Z,976.48
2018-03-06T08:30:03.593Z,976.47
2018-03-06T08:31:13.681Z,976.45
2018-03-06T08:32:23.750Z,976.45
2018-03-06T08:33:33.555Z,976.45
2018-03-06T08:34:43.609Z,976.45
2018-03-06T08:35:53.407Z,976.47
2018-03-06T08:37:03.452Z,976.45
2018-03-06T08:38:13.540Z,976.42
2018-03-06T08:39:23.603Z,976.44
2018-03-06T08:40:33.693Z,976.42
2018-03-06T08:41:43.499Z,976.41
2018-03-06T08:42:53.615Z,976.44
2018-03-06T08:44:03.417Z,976.45
2018-03-06T08:45:13.224Z,976.44
2018-03-06T08:46:23.021Z,976.42
2018-03-06T08:47:32.811Z,976.42
2018-03-06T08:48:42.877Z,976.4
2018-03-06T08:49:52.937Z,976.4
2018-03-06T08:51:02.727Z,976.32
2018-03-06T08:52:12.632Z,976.4
2018-03-06T08:53:24.112Z,976.35
2018-03-06T08:54:34.565Z,976.35
2018-03-06T08:55:44.628Z,976.36
2018-03-06T08:56:54.693Z,976.37
2018-03-06T08:58:06.903Z,976.34
2018-03-06T08:59:16.725Z,976.34
2018-03-06T09:00:26.526Z,976.35
2018-03-06T09:01:36.336Z,976.31
2018-03-06T09:02:46.394Z,976.32
2018-03-06T09:03:56.461Z,976.3
2018-03-06T09:05:06.500Z,976.3
2018-03-06T09:06:16.349Z,976.31
2018-03-06T09:07:25.884Z,976.34
2018-03-06T09:08:35.929Z,976.32
2018-03-06T09:09:45.992Z,976.33
2018-03-06T09:10:56.052Z,976.29
2018-03-06T09:12:06.114Z,976.35
2018-03-06T09:13:16.253Z,976.32
2018-03-06T09:14:26.306Z,976.3
2018-03-06T09:15:36.366Z,976.28
2018-03-06T09:16:45.906Z,976.28
2018-03-06T09:17:55.704Z,976.26
2018-03-06T09:19:05.236Z,976.28
2018-03-06T09:20:15.298Z,976.26
2018-03-06T09:21:25.378Z,976.24
2018-03-06T09:22:35.445Z,976.21
2018-03-06T09:23:45.530Z,976.2
2018-03-06T09:24:55.588Z,976.21
2018-03-06T09:26:05.416Z,976.22
2018-03-06T09:27:15.462Z,976.22
2018-03-06T09:28:25.588Z,976.18
2018-03-06T09:29:35.417Z,976.17
2018-03-06T09:30:45.219Z,976.18
2018-03-06T09:31:54.756Z,976.16
2018-03-06T09:33:04.562Z,976.13
2018-03-06T09:34:14.362Z,976.13
2018-03-06T09:35:24.167Z,976.13
2018-03-06T09:36:33.437Z,976.15
2018-03-06T09:37:43.071Z,976.19
2018-03-06T09:38:53.361Z,976.13
2018-03-06T09:40:02.693Z,976.14
2018-03-06T09:41:13.302Z,976.1
2018-03-06T09:42:23.120Z,976.12
2018-03-06T09:43:33.077Z,976.06
2018-03-06T09:44:42.892Z,976.06
2018-03-06T09:45:53.477Z,976
2018-03-06T09:47:04.225Z,976
2018-03-06T09:48:14.719Z,975.96
2018-03-06T09:49:24.888Z,975.95
2018-03-06T09:50:34.962Z,975.95
2018-03-06T09:51:45.333Z,975.91
2018-03-06T09:52:56.312Z,975.87
2018-03-06T09:54:06.684Z,975.89
2018-03-06T09:55:17.385Z,975.93
2018-03-06T09:56:27.540Z,975.85
2018-03-06T09:57:37.348Z,975.85
2018-03-06T09:58:47.430Z,975.81
2018-03-06T09:59:57.486Z,975.82
2018-03-06T10:01:07.300Z,975.77
2018-03-06T10:02:17.375Z,975.72
2018-03-06T10:03:27.431Z,975.77
2018-03-06T10:04:37.511Z,975.75
2018-03-06T10:05:47.578Z,975.7
2018-03-06T10:06:57.644Z,975.75
2018-03-06T10:08:07.722Z,975.7
2018-03-06T10:09:17.818Z,975.7
2018-03-06T10:10:27.878Z,975.72
2018-03-06T10:11:38.184Z,975.7
2018-03-06T10:12:48.256Z,975.62
2018-03-06T10:13:58.317Z,975.61
2018-03-06T10:15:08.383Z,975.63
2018-03-06T10:16:18.490Z,975.58
2018-03-06T10:17:28.560Z,975.63
2018-03-06T10:18:38.334Z,975.62
2018-03-06T10:19:48.406Z,975.63
2018-03-06T10:20:58.822Z,975.63
2018-03-06T10:22:08.885Z,975.63
2018-03-06T10:23:18.938Z,975.53
2018-03-06T10:24:29.007Z,975.6
2018-03-06T10:25:39.081Z,975.63
2018-03-06T10:26:48.617Z,975.64
2018-03-06T10:27:58.686Z,975.53
2018-03-06T10:29:08.831Z,975.56
2018-03-06T10:30:18.887Z,975.56
2018-03-06T10:31:28.955Z,975.53
2018-03-06T10:32:39.031Z,975.54
2018-03-06T10:33:49.077Z,975.53
2018-03-06T10:34:59.188Z,975.5
2018-03-06T10:36:09.277Z,975.52
2018-03-06T10:37:19.083Z,975.54
2018-03-06T10:38:28.893Z,975.54
2018-03-06T10:39:38.806Z,975.52
2018-03-06T10:40:48.906Z,975.53
2018-03-06T10:41:59.017Z,975.46
2018-03-06T10:43:08.816Z,975.51
2018-03-06T10:44:19.122Z,975.48
2018-03-06T10:45:29.245Z,975.5
2018-03-06T10:46:39.044Z,975.5
2018-03-06T10:47:48.856Z,975.47
2018-03-06T10:48:58.941Z,975.49
2018-03-06T10:50:09.022Z,975.52
2018-03-06T10:51:18.828Z,975.46
2018-03-06T10:52:28.892Z,975.41
2018-03-06T10:53:38.947Z,975.38
2018-03-06T10:54:49.022Z,975.38
2018-03-06T10:55:58.817Z,975.33
2018-03-06T10:57:08.900Z,975.35
2018-03-06T10:58:18.994Z,975.32
2018-03-06T10:59:28.957Z,975.33
2018-03-06T11:00:39.014Z,975.26
2018-03-06T11:01:49.070Z,975.24
2018-03-06T11:02:59.138Z,975.28
2018-03-06T11:04:09.209Z,975.23
2018-03-06T11:05:19.294Z,975.21
2018-03-06T11:06:29.137Z,975.21
2018-03-06T11:07:39.210Z,975.15
2018-03-06T11:08:48.803Z,975.12
2018-03-06T11:09:58.854Z,975.14
2018-03-06T11:11:08.902Z,975.11
2018-03-06T11:12:18.464Z,975.06
2018-03-06T11:13:28.546Z,975.06
2018-03-06T11:14:38.613Z,975.03
2018-03-06T11:15:48.679Z,974.97
2018-03-06T11:16:58.745Z,974.97
2018-03-06T11:18:08.538Z,974.88
2018-03-06T11:19:17.809Z,974.89
2018-03-06T11:20:27.944Z,974.9
2018-03-06T11:21:37.996Z,974.87
2018-03-06T11:22:48.056Z,974.86
2018-03-06T11:23:58.121Z,974.91
2018-03-06T11:25:07.941Z,974.9
2018-03-06T11:26:17.768Z,974.88
2018-03-06T11:27:27.828Z,974.89
2018-03-06T11:28:37.901Z,974.93
2018-03-06T11:29:47.966Z,974.89
2018-03-06T11:30:58.090Z,974.89
2018-03-06T11:32:08.233Z,974.89
2018-03-06T11:33:18.042Z,974.92
2018-03-06T11:34:27.584Z,974.85
2018-03-06T11:35:37.384Z,974.86
2018-03-06T11:36:47.448Z,974.85
2018-03-06T11:37:57.038Z,974.85
2018-03-06T11:39:06.578Z,974.84
2018-03-06T11:40:16.373Z,974.81
2018-03-06T11:41:26.177Z,974.8
2018-03-06T11:42:36.228Z,974.77
2018-03-06T11:43:46.028Z,974.76
2018-03-06T11:44:55.574Z,974.74
2018-03-06T11:46:05.646Z,974.72
2018-03-06T11:47:15.720Z,974.73
2018-03-06T11:48:25.806Z,974.73
2018-03-06T11:49:35.599Z,974.71
2018-03-06T11:50:45.168Z,974.71
2018-03-06T11:51:55.244Z,974.68
2018-03-06T11:53:05.048Z,974.69
2018-03-06T11:54:15.111Z,974.7
2018-03-06T11:55:25.227Z,974.74
2018-03-06T11:56:35.291Z,974.73
2018-03-06T11:57:45.081Z,974.75
2018-03-06T11:58:55.169Z,974.73
2018-03-06T12:00:05.276Z,974.76
2018-03-06T12:01:15.064Z,974.74
2018-03-06T12:02:24.626Z,974.69
2018-03-06T12:03:34.707Z,974.67
2018-03-06T12:04:44.797Z,974.66
2018-03-06T12:05:55.161Z,974.65
2018-03-06T12:07:05.027Z,974.6
2018-03-06T12:08:15.018Z,974.65
2018-03-06T12:09:25.089Z,974.7
2018-03-06T12:10:35.171Z,974.71
2018-03-06T12:11:44.987Z,974.72
2018-03-06T12:12:54.817Z,974.66
2018-03-06T12:14:04.893Z,974.71
2018-03-06T12:15:14.706Z,974.69
2018-03-06T12:16:24.768Z,974.68
2018-03-06T12:17:34.834Z,974.68
2018-03-06T12:18:44.968Z,974.7
2018-03-06T12:19:55.037Z,974.71
2018-03-06T12:21:05.156Z,974.65
2018-03-06T12:22:15.009Z,974.7
2018-03-06T12:23:25.084Z,974.7
2018-03-06T12:24:34.640Z,974.73
2018-03-06T12:25:44.760Z,974.72
2018-03-06T12:26:54.302Z,974.79
2018-03-06T12:28:04.384Z,974.75
2018-03-06T12:29:13.946Z,974.76
2018-03-06T12:30:24.049Z,974.78
2018-03-06T12:31:34.118Z,974.78
2018-03-06T12:32:44.190Z,974.75
2018-03-06T12:33:53.991Z,974.72
2018-03-06T12:35:04.079Z,974.71
2018-03-06T12:36:13.877Z,974.76
2018-03-06T12:37:23.958Z,974.72
2018-03-06T12:38:34.049Z,974.71
2018-03-06T12:39:44.196Z,974.63
2018-03-06T12:40:54.024Z,974.64
2018-03-06T12:42:04.082Z,974.67
2018-03-06T12:43:13.917Z,974.61
2018-03-06T12:44:23.726Z,974.65
2018-03-06T12:45:33.797Z,974.65
2018-03-06T12:46:43.877Z,974.72
2018-03-06T12:47:53.947Z,974.7
2018-03-06T12:49:04.002Z,974.7
2018-03-06T12:50:14.077Z,974.69
2018-03-06T12:51:24.245Z,974.74
2018-03-06T12:52:34.316Z,974.7
2018-03-06T12:53:44.376Z,974.63
2018-03-06T12:54:54.521Z,974.67
2018-03-06T12:56:04.506Z,974.67
2018-03-06T12:57:14.586Z,974.67
2018-03-06T12:58:24.655Z,974.77
2018-03-06T12:59:34.202Z,974.7
2018-03-06T13:00:44.284Z,974.74
2018-03-06T13:01:54.366Z,974.77
2018-03-06T13:03:04.727Z,974.74
2018-03-06T13:04:14.526Z,974.75
2018-03-06T13:05:24.640Z,974.79
2018-03-06T13:06:34.697Z,974.77
2018-03-06T13:07:44.803Z,974.77
2018-03-06T13:08:54.381Z,974.71
2018-03-06T13:10:04.477Z,974.74
2018-03-06T13:11:14.592Z,974.71
2018-03-06T13:12:24.411Z,974.7
2018-03-06T13:13:34.553Z,974.74
2018-03-06T13:14:44.369Z,974.8
2018-03-06T13:15:54.187Z,974.84
2018-03-06T13:17:04.279Z,974.85
2018-03-06T13:18:14.356Z,974.81
2018-03-06T13:19:24.442Z,974.79
2018-03-06T13:20:34.255Z,974.77
2018-03-06T13:21:44.332Z,974.76
2018-03-06T13:22:54.397Z,974.77
2018-03-06T13:24:04.480Z,974.72
2018-03-06T13:25:14.569Z,974.75
2018-03-06T13:26:24.645Z,974.74
2018-03-06T13:27:34.729Z,974.68
2018-03-06T13:28:44.813Z,974.7
2018-03-06T13:29:54.882Z,974.69
2018-03-06T13:31:04.714Z,974.68
2018-03-06T13:32:14.838Z,974.7
2018-03-06T13:33:24.918Z,974.7
2018-03-06T13:34:34.469Z,974.65
2018-03-06T13:35:44.783Z,974.7
2018-03-06T13:36:54.946Z,974.75
2018-03-06T13:38:04.830Z,974.7
2018-03-06T13:39:14.630Z,974.73
2018-03-06T13:40:24.446Z,974.75
2018-03-06T13:41:34.522Z,974.75
2018-03-06T13:42:44.352Z,974.76
2018-03-06T13:43:54.429Z,974.8
2018-03-06T13:45:04.518Z,974.79
2018-03-06T13:46:14.615Z,974.78
2018-03-06T13:47:24.662Z,974.75
2018-03-06T13:48:34.745Z,974.77
2018-03-06T13:49:44.782Z,974.75
2018-03-06T13:50:54.866Z,974.76
2018-03-06T13:52:04.947Z,974.77
2018-03-06T13:53:15.134Z,974.75
2018-03-06T13:54:25.236Z,974.76
2018-03-06T13:55:35.370Z,974.74
2018-03-06T13:56:45.441Z,974.73
2018-03-06T13:57:55.255Z,974.78
2018-03-06T13:59:04.548Z,974.77
2018-03-06T14:00:14.385Z,974.75
2018-03-06T14:01:24.489Z,974.77
2018-03-06T14:02:34.328Z,974.76
2018-03-06T14:03:44.387Z,974.75
2018-03-06T14:04:53.945Z,974.8
2018-03-06T14:06:03.774Z,974.73
2018-03-06T14:07:13.844Z,974.79
2018-03-06T14:08:23.933Z,974.74
2018-03-06T14:09:33.740Z,974.74
2018-03-06T14:10:43.836Z,974.79
2018-03-06T14:11:53.662Z,974.77
2018-03-06T14:13:03.799Z,974.77
2018-03-06T14:14:13.661Z,974.78
2018-03-06T14:15:23.228Z,974.76
2018-03-06T14:16:32.911Z,974.77
2018-03-06T14:17:43.016Z,974.77
2018-03-06T14:18:52.882Z,974.69
2018-03-06T14:20:02.944Z,974.73
2018-03-06T14:21:12.755Z,974.76
2018-03-06T14:22:22.847Z,974.75
2018-03-06T14:23:32.668Z,974.74
2018-03-06T14:24:42.800Z,974.73
2018-03-06T14:25:52.900Z,974.72
2018-03-06T14:27:02.200Z,974.73
2018-03-06T14:28:12.296Z,974.73
2018-03-06T14:29:22.416Z,974.73
2018-03-06T14:30:32.230Z,974.71
2018-03-06T14:31:42.323Z,974.75
2018-03-06T14:32:52.148Z,974.73
2018-03-06T14:34:01.972Z,974.8
2018-03-06T14:35:11.799Z,974.71
2018-03-06T14:36:21.343Z,974.76
2018-03-06T14:37:31.485Z,974.77
2018-03-06T14:38:41.279Z,974.76
2018-03-06T14:39:51.081Z,974.74
2018-03-06T14:41:00.904Z,974.75
2018-03-06T14:42:11.002Z,974.7
2018-03-06T14:43:20.859Z,974.75
2018-03-06T14:44:30.999Z,974.71
2018-03-06T14:45:40.817Z,974.72
2018-03-06T14:46:50.631Z,974.7
2018-03-06T14:48:00.436Z,974.78
2018-03-06T14:49:10.309Z,974.67
2018-03-06T14:50:19.329Z,974.69
2018-03-06T14:51:29.420Z,974.7
2018-03-06T14:52:39.586Z,974.74
2018-03-06T14:53:49.757Z,974.72
2018-03-06T14:54:59.904Z,974.7
2018-03-06T14:56:10.002Z,974.69
2018-03-06T14:57:20.196Z,974.68
2018-03-06T14:58:30.271Z,974.67
2018-03-06T14:59:40.351Z,974.69
2018-03-06T15:00:50.473Z,974.71
2018-03-06T15:02:00.569Z,974.69
2018-03-06T15:03:10.671Z,974.73
2018-03-06T15:04:20.810Z,974.7
2018-03-06T15:05:30.917Z,974.65
2018-03-06T15:06:41.064Z,974.67
2018-03-06T15:07:51.146Z,974.61
2018-03-06T15:09:00.951Z,974.59
2018-03-06T15:10:11.025Z,974.61
2018-03-06T15:11:21.086Z,974.58